sensor_id;sensor_type;location;lat;lon;timestamp;P1;durP1;ratioP1;P2;durP2;ratioP2
24799;SDS011;12897;50.812;4.430;2023-08-20T00:02:26;14.90;;;3.02;;
24799;SDS011;12897;50.812;4.430;2023-08-20T00:04:57;17.67;;;3.27;;
24799;SDS011;12897;50.812;4.430;2023-08-20T00:07:25;21.52;;;3.08;;
24799;SDS011;12897;50.812;4.430;2023-08-20T00:09:53;15.10;;;3.12;;
24799;SDS011;12897;50.812;4.430;2023-08-20T00:12:20;17.45;;;3.08;;
24799;SDS011;12897;50.812;4.430;2023-08-20T00:14:51;16.97;;;3.10;;
24799;SDS011;12897;50.812;4.430;2023-08-20T00:17:21;14.28;;;2.85;;
24799;SDS011;12897;50.812;4.430;2023-08-20T00:19:50;17.82;;;3.37;;
24799;SDS011;12897;50.812;4.430;2023-08-20T00:22:19;12.25;;;2.50;;
24799;SDS011;12897;50.812;4.430;2023-08-20T00:24:54;21.27;;;2.92;;
24799;SDS011;12897;50.812;4.430;2023-08-20T00:27:22;17.90;;;3.10;;
24799;SDS011;12897;50.812;4.430;2023-08-20T00:29:50;17.02;;;3.12;;
24799;SDS011;12897;50.812;4.430;2023-08-20T00:32:17;16.65;;;3.17;;
24799;SDS011;12897;50.812;4.430;2023-08-20T00:34:45;16.77;;;3.15;;
24799;SDS011;12897;50.812;4.430;2023-08-20T00:37:12;15.68;;;3.20;;
24799;SDS011;12897;50.812;4.430;2023-08-20T00:39:40;12.20;;;2.47;;
24799;SDS011;12897;50.812;4.430;2023-08-20T00:42:08;11.80;;;2.92;;
24799;SDS011;12897;50.812;4.430;2023-08-20T00:44:36;10.13;;;2.40;;
24799;SDS011;12897;50.812;4.430;2023-08-20T00:47:04;12.60;;;2.90;;
24799;SDS011;12897;50.812;4.430;2023-08-20T00:49:32;11.45;;;2.90;;
24799;SDS011;12897;50.812;4.430;2023-08-20T00:52:00;18.02;;;3.00;;
24799;SDS011;12897;50.812;4.430;2023-08-20T00:54:28;18.85;;;2.90;;
24799;SDS011;12897;50.812;4.430;2023-08-20T00:56:57;15.45;;;2.85;;
24799;SDS011;12897;50.812;4.430;2023-08-20T00:59:32;19.32;;;3.08;;
24799;SDS011;12897;50.812;4.430;2023-08-20T01:01:58;15.80;;;3.35;;
24799;SDS011;12897;50.812;4.430;2023-08-20T01:04:27;16.77;;;2.70;;
24799;SDS011;12897;50.812;4.430;2023-08-20T01:09:48;12.70;;;2.83;;
24799;SDS011;12897;50.812;4.430;2023-08-20T01:12:22;15.63;;;2.60;;
24799;SDS011;12897;50.812;4.430;2023-08-20T01:14:50;14.87;;;3.15;;
24799;SDS011;12897;50.812;4.430;2023-08-20T01:17:18;12.30;;;2.50;;
24799;SDS011;12897;50.812;4.430;2023-08-20T01:19:46;17.48;;;3.17;;
24799;SDS011;12897;50.812;4.430;2023-08-20T01:22:34;14.73;;;3.20;;
24799;SDS011;12897;50.812;4.430;2023-08-20T01:28:41;13.53;;;3.40;;
24799;SDS011;12897;50.812;4.430;2023-08-20T01:30:42;19.57;;;3.02;;
24799;SDS011;12897;50.812;4.430;2023-08-20T01:33:11;14.00;;;3.08;;
24799;SDS011;12897;50.812;4.430;2023-08-20T01:35:40;12.13;;;3.00;;
24799;SDS011;12897;50.812;4.430;2023-08-20T01:38:08;14.03;;;2.62;;
24799;SDS011;12897;50.812;4.430;2023-08-20T01:40:35;18.90;;;2.90;;
24799;SDS011;12897;50.812;4.430;2023-08-20T01:43:03;18.07;;;3.52;;
24799;SDS011;12897;50.812;4.430;2023-08-20T01:45:31;13.30;;;2.90;;
24799;SDS011;12897;50.812;4.430;2023-08-20T01:47:58;12.68;;;2.87;;
24799;SDS011;12897;50.812;4.430;2023-08-20T01:50:26;13.32;;;2.67;;
24799;SDS011;12897;50.812;4.430;2023-08-20T01:52:54;12.85;;;2.98;;
24799;SDS011;12897;50.812;4.430;2023-08-20T01:55:21;14.33;;;3.17;;
24799;SDS011;12897;50.812;4.430;2023-08-20T01:57:49;14.83;;;2.95;;
24799;SDS011;12897;50.812;4.430;2023-08-20T02:00:16;10.23;;;2.60;;
24799;SDS011;12897;50.812;4.430;2023-08-20T02:02:44;14.90;;;3.08;;
24799;SDS011;12897;50.812;4.430;2023-08-20T02:05:11;14.20;;;3.02;;
24799;SDS011;12897;50.812;4.430;2023-08-20T02:07:39;16.42;;;3.15;;
24799;SDS011;12897;50.812;4.430;2023-08-20T02:10:07;11.65;;;2.50;;
24799;SDS011;12897;50.812;4.430;2023-08-20T02:12:35;9.95;;;2.80;;
24799;SDS011;12897;50.812;4.430;2023-08-20T02:15:02;12.70;;;3.05;;
24799;SDS011;12897;50.812;4.430;2023-08-20T02:17:30;14.23;;;2.72;;
24799;SDS011;12897;50.812;4.430;2023-08-20T02:19:58;10.38;;;2.83;;
24799;SDS011;12897;50.812;4.430;2023-08-20T02:22:25;15.90;;;2.85;;
24799;SDS011;12897;50.812;4.430;2023-08-20T02:24:54;13.45;;;3.12;;
24799;SDS011;12897;50.812;4.430;2023-08-20T02:27:22;11.45;;;2.58;;
24799;SDS011;12897;50.812;4.430;2023-08-20T02:29:50;13.10;;;2.72;;
24799;SDS011;12897;50.812;4.430;2023-08-20T02:32:17;13.93;;;2.72;;
24799;SDS011;12897;50.812;4.430;2023-08-20T02:34:50;16.17;;;2.87;;
24799;SDS011;12897;50.812;4.430;2023-08-20T02:37:17;12.65;;;3.08;;
24799;SDS011;12897;50.812;4.430;2023-08-20T02:39:45;13.43;;;2.50;;
24799;SDS011;12897;50.812;4.430;2023-08-20T02:42:12;18.48;;;3.02;;
24799;SDS011;12897;50.812;4.430;2023-08-20T02:44:40;13.10;;;2.98;;
24799;SDS011;12897;50.812;4.430;2023-08-20T02:47:08;11.35;;;2.98;;
24799;SDS011;12897;50.812;4.430;2023-08-20T02:49:35;12.60;;;3.30;;
24799;SDS011;12897;50.812;4.430;2023-08-20T02:52:03;15.70;;;3.42;;
24799;SDS011;12897;50.812;4.430;2023-08-20T02:54:30;10.15;;;2.83;;
24799;SDS011;12897;50.812;4.430;2023-08-20T02:56:58;18.37;;;3.00;;
24799;SDS011;12897;50.812;4.430;2023-08-20T02:59:26;14.83;;;3.10;;
24799;SDS011;12897;50.812;4.430;2023-08-20T03:01:53;16.85;;;2.85;;
24799;SDS011;12897;50.812;4.430;2023-08-20T03:04:21;15.13;;;3.30;;
24799;SDS011;12897;50.812;4.430;2023-08-20T03:06:48;13.08;;;3.35;;
24799;SDS011;12897;50.812;4.430;2023-08-20T03:09:16;19.45;;;3.52;;
24799;SDS011;12897;50.812;4.430;2023-08-20T03:11:44;12.70;;;3.27;;
24799;SDS011;12897;50.812;4.430;2023-08-20T03:14:11;13.80;;;3.20;;
24799;SDS011;12897;50.812;4.430;2023-08-20T03:16:38;10.65;;;2.77;;
24799;SDS011;12897;50.812;4.430;2023-08-20T03:19:06;12.05;;;2.95;;
24799;SDS011;12897;50.812;4.430;2023-08-20T03:21:34;11.93;;;3.30;;
24799;SDS011;12897;50.812;4.430;2023-08-20T03:24:02;19.60;;;3.75;;
24799;SDS011;12897;50.812;4.430;2023-08-20T03:26:30;12.55;;;2.70;;
24799;SDS011;12897;50.812;4.430;2023-08-20T03:28:57;13.48;;;2.70;;
24799;SDS011;12897;50.812;4.430;2023-08-20T03:31:25;10.80;;;2.55;;
24799;SDS011;12897;50.812;4.430;2023-08-20T03:33:53;9.43;;;2.47;;
24799;SDS011;12897;50.812;4.430;2023-08-20T03:36:20;10.93;;;2.50;;
24799;SDS011;12897;50.812;4.430;2023-08-20T03:38:48;11.45;;;2.83;;
24799;SDS011;12897;50.812;4.430;2023-08-20T03:41:15;10.48;;;3.05;;
24799;SDS011;12897;50.812;4.430;2023-08-20T03:43:44;11.65;;;3.25;;
24799;SDS011;12897;50.812;4.430;2023-08-20T03:46:11;12.15;;;3.08;;
24799;SDS011;12897;50.812;4.430;2023-08-20T03:48:39;18.07;;;3.12;;
24799;SDS011;12897;50.812;4.430;2023-08-20T03:51:06;8.63;;;3.25;;
24799;SDS011;12897;50.812;4.430;2023-08-20T03:53:34;15.03;;;3.30;;
24799;SDS011;12897;50.812;4.430;2023-08-20T03:56:02;8.85;;;2.80;;
24799;SDS011;12897;50.812;4.430;2023-08-20T03:58:30;10.65;;;3.10;;
24799;SDS011;12897;50.812;4.430;2023-08-20T04:01:00;17.57;;;3.58;;
24799;SDS011;12897;50.812;4.430;2023-08-20T04:03:29;11.40;;;3.10;;
24799;SDS011;12897;50.812;4.430;2023-08-20T04:05:57;16.37;;;3.22;;
24799;SDS011;12897;50.812;4.430;2023-08-20T04:08:24;13.30;;;3.62;;
24799;SDS011;12897;50.812;4.430;2023-08-20T04:13:43;8.35;;;2.70;;
24799;SDS011;12897;50.812;4.430;2023-08-20T04:16:11;12.73;;;2.75;;
24799;SDS011;12897;50.812;4.430;2023-08-20T04:18:39;11.50;;;3.10;;
24799;SDS011;12897;50.812;4.430;2023-08-20T04:21:11;10.58;;;2.58;;
24799;SDS011;12897;50.812;4.430;2023-08-20T04:23:41;11.97;;;2.90;;
24799;SDS011;12897;50.812;4.430;2023-08-20T04:28:35;13.13;;;3.12;;
24799;SDS011;12897;50.812;4.430;2023-08-20T04:31:03;14.23;;;2.90;;
24799;SDS011;12897;50.812;4.430;2023-08-20T04:33:30;8.88;;;2.83;;
24799;SDS011;12897;50.812;4.430;2023-08-20T04:35:58;12.45;;;2.67;;
24799;SDS011;12897;50.812;4.430;2023-08-20T04:38:26;18.37;;;3.30;;
24799;SDS011;12897;50.812;4.430;2023-08-20T04:40:53;17.45;;;3.15;;
24799;SDS011;12897;50.812;4.430;2023-08-20T04:43:21;10.70;;;2.37;;
24799;SDS011;12897;50.812;4.430;2023-08-20T04:45:49;10.15;;;2.62;;
24799;SDS011;12897;50.812;4.430;2023-08-20T04:48:17;13.83;;;2.85;;
24799;SDS011;12897;50.812;4.430;2023-08-20T04:50:44;12.00;;;3.05;;
24799;SDS011;12897;50.812;4.430;2023-08-20T04:53:12;11.53;;;2.87;;
24799;SDS011;12897;50.812;4.430;2023-08-20T04:55:39;8.38;;;2.05;;
24799;SDS011;12897;50.812;4.430;2023-08-20T04:58:07;9.38;;;2.37;;
24799;SDS011;12897;50.812;4.430;2023-08-20T05:00:37;7.58;;;2.58;;
24799;SDS011;12897;50.812;4.430;2023-08-20T05:03:04;11.57;;;3.02;;
24799;SDS011;12897;50.812;4.430;2023-08-20T05:05:32;12.00;;;3.20;;
24799;SDS011;12897;50.812;4.430;2023-08-20T05:08:00;12.58;;;2.98;;
24799;SDS011;12897;50.812;4.430;2023-08-20T05:10:28;9.95;;;2.50;;
24799;SDS011;12897;50.812;4.430;2023-08-20T05:12:56;12.58;;;2.87;;
24799;SDS011;12897;50.812;4.430;2023-08-20T05:15:24;10.95;;;2.70;;
24799;SDS011;12897;50.812;4.430;2023-08-20T05:17:51;8.35;;;2.58;;
24799;SDS011;12897;50.812;4.430;2023-08-20T05:20:19;16.25;;;3.15;;
24799;SDS011;12897;50.812;4.430;2023-08-20T05:22:51;10.45;;;2.77;;
24799;SDS011;12897;50.812;4.430;2023-08-20T05:28:54;7.62;;;3.00;;
24799;SDS011;12897;50.812;4.430;2023-08-20T05:31:22;13.32;;;3.12;;
24799;SDS011;12897;50.812;4.430;2023-08-20T05:33:49;14.23;;;3.35;;
24799;SDS011;12897;50.812;4.430;2023-08-20T05:36:18;9.68;;;3.15;;
24799;SDS011;12897;50.812;4.430;2023-08-20T05:38:49;16.70;;;3.92;;
24799;SDS011;12897;50.812;4.430;2023-08-20T05:41:16;7.67;;;2.90;;
24799;SDS011;12897;50.812;4.430;2023-08-20T05:43:44;10.43;;;2.60;;
24799;SDS011;12897;50.812;4.430;2023-08-20T05:46:11;13.13;;;3.02;;
24799;SDS011;12897;50.812;4.430;2023-08-20T05:48:39;10.30;;;2.90;;
24799;SDS011;12897;50.812;4.430;2023-08-20T05:51:06;8.73;;;2.80;;
24799;SDS011;12897;50.812;4.430;2023-08-20T05:53:34;12.73;;;2.85;;
24799;SDS011;12897;50.812;4.430;2023-08-20T05:56:02;6.95;;;2.40;;
24799;SDS011;12897;50.812;4.430;2023-08-20T05:58:29;9.45;;;2.30;;
24799;SDS011;12897;50.812;4.430;2023-08-20T06:00:57;6.53;;;2.45;;
24799;SDS011;12897;50.812;4.430;2023-08-20T06:03:24;12.93;;;2.75;;
24799;SDS011;12897;50.812;4.430;2023-08-20T06:05:52;10.58;;;2.60;;
24799;SDS011;12897;50.812;4.430;2023-08-20T06:08:19;11.93;;;2.58;;
24799;SDS011;12897;50.812;4.430;2023-08-20T06:10:47;9.03;;;2.50;;
24799;SDS011;12897;50.812;4.430;2023-08-20T06:13:14;9.68;;;2.85;;
24799;SDS011;12897;50.812;4.430;2023-08-20T06:15:42;8.18;;;2.40;;
24799;SDS011;12897;50.812;4.430;2023-08-20T06:18:10;8.40;;;2.85;;
24799;SDS011;12897;50.812;4.430;2023-08-20T06:20:37;10.28;;;2.80;;
24799;SDS011;12897;50.812;4.430;2023-08-20T06:23:05;11.15;;;2.87;;
24799;SDS011;12897;50.812;4.430;2023-08-20T06:25:32;9.38;;;2.77;;
24799;SDS011;12897;50.812;4.430;2023-08-20T06:28:00;18.12;;;3.33;;
24799;SDS011;12897;50.812;4.430;2023-08-20T06:30:28;11.50;;;2.90;;
24799;SDS011;12897;50.812;4.430;2023-08-20T06:32:55;10.58;;;2.90;;
24799;SDS011;12897;50.812;4.430;2023-08-20T06:35:23;10.15;;;2.52;;
24799;SDS011;12897;50.812;4.430;2023-08-20T06:37:50;9.23;;;2.77;;
24799;SDS011;12897;50.812;4.430;2023-08-20T06:40:18;12.35;;;2.72;;
24799;SDS011;12897;50.812;4.430;2023-08-20T06:42:45;10.48;;;2.67;;
24799;SDS011;12897;50.812;4.430;2023-08-20T06:45:13;12.50;;;2.70;;
24799;SDS011;12897;50.812;4.430;2023-08-20T06:47:41;14.20;;;2.42;;
24799;SDS011;12897;50.812;4.430;2023-08-20T06:50:09;10.05;;;3.08;;
24799;SDS011;12897;50.812;4.430;2023-08-20T06:52:36;11.28;;;2.90;;
24799;SDS011;12897;50.812;4.430;2023-08-20T06:55:04;9.85;;;2.62;;
24799;SDS011;12897;50.812;4.430;2023-08-20T06:57:32;11.45;;;2.72;;
24799;SDS011;12897;50.812;4.430;2023-08-20T06:59:59;12.10;;;3.08;;
24799;SDS011;12897;50.812;4.430;2023-08-20T07:02:29;12.63;;;2.87;;
24799;SDS011;12897;50.812;4.430;2023-08-20T07:04:56;12.78;;;2.40;;
24799;SDS011;12897;50.812;4.430;2023-08-20T07:07:24;12.80;;;2.35;;
24799;SDS011;12897;50.812;4.430;2023-08-20T07:09:51;12.88;;;2.12;;
24799;SDS011;12897;50.812;4.430;2023-08-20T07:12:19;7.65;;;2.00;;
24799;SDS011;12897;50.812;4.430;2023-08-20T07:14:46;11.22;;;2.25;;
24799;SDS011;12897;50.812;4.430;2023-08-20T07:17:14;9.45;;;2.42;;
24799;SDS011;12897;50.812;4.430;2023-08-20T07:19:41;7.37;;;1.67;;
24799;SDS011;12897;50.812;4.430;2023-08-20T07:22:09;5.33;;;1.65;;
24799;SDS011;12897;50.812;4.430;2023-08-20T07:24:37;8.55;;;1.95;;
24799;SDS011;12897;50.812;4.430;2023-08-20T07:27:04;8.80;;;1.87;;
24799;SDS011;12897;50.812;4.430;2023-08-20T07:29:33;6.00;;;1.70;;
24799;SDS011;12897;50.812;4.430;2023-08-20T07:32:01;7.70;;;1.70;;
24799;SDS011;12897;50.812;4.430;2023-08-20T07:34:29;8.43;;;1.60;;
24799;SDS011;12897;50.812;4.430;2023-08-20T07:36:58;10.08;;;1.98;;
24799;SDS011;12897;50.812;4.430;2023-08-20T07:39:27;5.35;;;1.65;;
24799;SDS011;12897;50.812;4.430;2023-08-20T07:41:55;6.00;;;1.22;;
24799;SDS011;12897;50.812;4.430;2023-08-20T07:44:22;7.50;;;1.62;;
24799;SDS011;12897;50.812;4.430;2023-08-20T07:46:50;5.50;;;1.70;;
24799;SDS011;12897;50.812;4.430;2023-08-20T07:49:18;2.75;;;1.22;;
24799;SDS011;12897;50.812;4.430;2023-08-20T07:51:45;6.25;;;1.30;;
24799;SDS011;12897;50.812;4.430;2023-08-20T07:54:14;7.80;;;1.43;;
24799;SDS011;12897;50.812;4.430;2023-08-20T07:56:41;6.45;;;1.37;;
24799;SDS011;12897;50.812;4.430;2023-08-20T07:59:09;7.92;;;1.75;;
24799;SDS011;12897;50.812;4.430;2023-08-20T08:01:36;5.70;;;1.12;;
24799;SDS011;12897;50.812;4.430;2023-08-20T08:04:04;3.92;;;0.98;;
24799;SDS011;12897;50.812;4.430;2023-08-20T08:06:32;3.30;;;0.80;;
24799;SDS011;12897;50.812;4.430;2023-08-20T08:09:14;2.77;;;0.98;;
24799;SDS011;12897;50.812;4.430;2023-08-20T08:11:45;4.87;;;1.30;;
24799;SDS011;12897;50.812;4.430;2023-08-20T08:14:13;3.77;;;1.00;;
24799;SDS011;12897;50.812;4.430;2023-08-20T08:16:40;5.55;;;1.10;;
24799;SDS011;12897;50.812;4.430;2023-08-20T08:19:08;6.70;;;1.32;;
24799;SDS011;12897;50.812;4.430;2023-08-20T08:21:36;3.17;;;1.07;;
24799;SDS011;12897;50.812;4.430;2023-08-20T08:24:04;3.95;;;1.25;;
24799;SDS011;12897;50.812;4.430;2023-08-20T08:26:33;5.15;;;1.17;;
24799;SDS011;12897;50.812;4.430;2023-08-20T08:29:04;4.55;;;1.07;;
24799;SDS011;12897;50.812;4.430;2023-08-20T08:31:33;7.78;;;1.67;;
24799;SDS011;12897;50.812;4.430;2023-08-20T08:34:04;5.20;;;1.30;;
24799;SDS011;12897;50.812;4.430;2023-08-20T08:36:31;4.67;;;1.60;;
24799;SDS011;12897;50.812;4.430;2023-08-20T08:38:59;11.75;;;2.35;;
24799;SDS011;12897;50.812;4.430;2023-08-20T08:41:26;10.48;;;2.60;;
24799;SDS011;12897;50.812;4.430;2023-08-20T08:43:56;6.95;;;1.90;;
24799;SDS011;12897;50.812;4.430;2023-08-20T08:46:24;6.60;;;1.82;;
24799;SDS011;12897;50.812;4.430;2023-08-20T08:48:52;5.67;;;1.70;;
24799;SDS011;12897;50.812;4.430;2023-08-20T08:51:20;8.33;;;1.70;;
24799;SDS011;12897;50.812;4.430;2023-08-20T08:53:48;4.33;;;1.70;;
24799;SDS011;12897;50.812;4.430;2023-08-20T08:56:15;2.83;;;1.25;;
24799;SDS011;12897;50.812;4.430;2023-08-20T08:58:44;7.65;;;1.60;;
24799;SDS011;12897;50.812;4.430;2023-08-20T09:01:11;4.35;;;1.27;;
24799;SDS011;12897;50.812;4.430;2023-08-20T09:03:39;5.10;;;1.40;;
24799;SDS011;12897;50.812;4.430;2023-08-20T09:06:08;3.83;;;1.30;;
24799;SDS011;12897;50.812;4.430;2023-08-20T09:08:36;5.42;;;1.00;;
24799;SDS011;12897;50.812;4.430;2023-08-20T09:11:04;4.25;;;1.40;;
24799;SDS011;12897;50.812;4.430;2023-08-20T09:13:38;3.77;;;1.50;;
24799;SDS011;12897;50.812;4.430;2023-08-20T09:16:07;3.67;;;1.05;;
24799;SDS011;12897;50.812;4.430;2023-08-20T09:18:39;5.28;;;1.55;;
24799;SDS011;12897;50.812;4.430;2023-08-20T09:21:08;5.30;;;1.67;;
24799;SDS011;12897;50.812;4.430;2023-08-20T09:23:36;5.55;;;2.45;;
24799;SDS011;12897;50.812;4.430;2023-08-20T09:26:05;4.78;;;1.30;;
24799;SDS011;12897;50.812;4.430;2023-08-20T09:28:43;5.47;;;1.40;;
24799;SDS011;12897;50.812;4.430;2023-08-20T09:31:12;3.72;;;1.20;;
24799;SDS011;12897;50.812;4.430;2023-08-20T09:33:53;5.77;;;1.27;;
24799;SDS011;12897;50.812;4.430;2023-08-20T09:36:40;3.37;;;1.20;;
24799;SDS011;12897;50.812;4.430;2023-08-20T09:38:57;3.50;;;1.12;;
24799;SDS011;12897;50.812;4.430;2023-08-20T09:41:25;6.42;;;1.50;;
24799;SDS011;12897;50.812;4.430;2023-08-20T09:43:55;3.80;;;1.12;;
24799;SDS011;12897;50.812;4.430;2023-08-20T09:46:26;4.17;;;1.67;;
24799;SDS011;12897;50.812;4.430;2023-08-20T09:48:57;10.70;;;1.52;;
24799;SDS011;12897;50.812;4.430;2023-08-20T09:51:25;5.33;;;1.85;;
24799;SDS011;12897;50.812;4.430;2023-08-20T09:56:40;8.35;;;2.83;;
24799;SDS011;12897;50.812;4.430;2023-08-20T09:59:10;3.67;;;1.25;;
24799;SDS011;12897;50.812;4.430;2023-08-20T10:01:38;7.87;;;1.40;;
24799;SDS011;12897;50.812;4.430;2023-08-20T10:04:06;3.58;;;1.47;;
24799;SDS011;12897;50.812;4.430;2023-08-20T10:06:35;5.20;;;1.40;;
24799;SDS011;12897;50.812;4.430;2023-08-20T10:09:04;5.70;;;1.30;;
24799;SDS011;12897;50.812;4.430;2023-08-20T10:11:32;4.72;;;1.30;;
24799;SDS011;12897;50.812;4.430;2023-08-20T10:14:00;4.17;;;1.22;;
24799;SDS011;12897;50.812;4.430;2023-08-20T10:16:27;6.67;;;1.75;;
24799;SDS011;12897;50.812;4.430;2023-08-20T10:18:55;3.85;;;1.40;;
24799;SDS011;12897;50.812;4.430;2023-08-20T10:21:25;5.72;;;1.42;;
24799;SDS011;12897;50.812;4.430;2023-08-20T10:23:54;7.13;;;1.50;;
24799;SDS011;12897;50.812;4.430;2023-08-20T10:26:21;4.50;;;1.40;;
24799;SDS011;12897;50.812;4.430;2023-08-20T10:28:50;5.97;;;1.37;;
24799;SDS011;12897;50.812;4.430;2023-08-20T10:31:17;5.28;;;1.52;;
24799;SDS011;12897;50.812;4.430;2023-08-20T10:33:54;7.20;;;1.55;;
24799;SDS011;12897;50.812;4.430;2023-08-20T10:36:23;6.00;;;1.50;;
24799;SDS011;12897;50.812;4.430;2023-08-20T10:38:55;4.45;;;1.20;;
24799;SDS011;12897;50.812;4.430;2023-08-20T10:43:52;4.22;;;1.40;;
24799;SDS011;12897;50.812;4.430;2023-08-20T10:46:22;4.85;;;1.57;;
24799;SDS011;12897;50.812;4.430;2023-08-20T10:51:19;8.78;;;1.62;;
24799;SDS011;12897;50.812;4.430;2023-08-20T10:56:43;4.20;;;1.55;;
24799;SDS011;12897;50.812;4.430;2023-08-20T10:59:15;8.50;;;2.35;;
24799;SDS011;12897;50.812;4.430;2023-08-20T11:01:48;5.28;;;1.37;;
24799;SDS011;12897;50.812;4.430;2023-08-20T11:04:18;7.33;;;1.70;;
24799;SDS011;12897;50.812;4.430;2023-08-20T11:06:47;7.17;;;1.70;;
24799;SDS011;12897;50.812;4.430;2023-08-20T11:09:27;6.75;;;1.72;;
24799;SDS011;12897;50.812;4.430;2023-08-20T11:11:56;5.95;;;3.00;;
24799;SDS011;12897;50.812;4.430;2023-08-20T11:14:25;9.60;;;2.20;;
24799;SDS011;12897;50.812;4.430;2023-08-20T11:16:52;4.67;;;1.35;;
24799;SDS011;12897;50.812;4.430;2023-08-20T11:19:21;7.35;;;1.55;;
24799;SDS011;12897;50.812;4.430;2023-08-20T11:21:49;4.33;;;1.70;;
24799;SDS011;12897;50.812;4.430;2023-08-20T11:24:17;8.20;;;1.77;;
24799;SDS011;12897;50.812;4.430;2023-08-20T11:26:46;9.08;;;1.72;;
24799;SDS011;12897;50.812;4.430;2023-08-20T11:29:15;5.37;;;1.60;;
24799;SDS011;12897;50.812;4.430;2023-08-20T11:31:45;9.15;;;2.00;;
24799;SDS011;12897;50.812;4.430;2023-08-20T11:34:13;5.37;;;1.37;;
24799;SDS011;12897;50.812;4.430;2023-08-20T11:39:10;6.70;;;1.70;;
24799;SDS011;12897;50.812;4.430;2023-08-20T11:41:39;7.97;;;1.70;;
24799;SDS011;12897;50.812;4.430;2023-08-20T11:44:10;5.10;;;1.57;;
24799;SDS011;12897;50.812;4.430;2023-08-20T11:46:44;3.77;;;1.52;;
24799;SDS011;12897;50.812;4.430;2023-08-20T11:49:12;5.60;;;1.70;;
24799;SDS011;12897;50.812;4.430;2023-08-20T11:51:41;11.20;;;1.62;;
24799;SDS011;12897;50.812;4.430;2023-08-20T11:54:14;6.00;;;1.80;;
24799;SDS011;12897;50.812;4.430;2023-08-20T11:56:46;5.35;;;1.57;;
24799;SDS011;12897;50.812;4.430;2023-08-20T11:59:15;7.15;;;1.80;;
24799;SDS011;12897;50.812;4.430;2023-08-20T12:01:52;4.22;;;1.35;;
24799;SDS011;12897;50.812;4.430;2023-08-20T12:04:23;5.30;;;1.55;;
24799;SDS011;12897;50.812;4.430;2023-08-20T12:09:41;5.20;;;1.60;;
24799;SDS011;12897;50.812;4.430;2023-08-20T12:12:08;5.65;;;1.60;;
24799;SDS011;12897;50.812;4.430;2023-08-20T12:14:36;5.53;;;1.70;;
24799;SDS011;12897;50.812;4.430;2023-08-20T12:17:05;6.22;;;1.67;;
24799;SDS011;12897;50.812;4.430;2023-08-20T12:19:33;5.72;;;1.77;;
24799;SDS011;12897;50.812;4.430;2023-08-20T12:22:01;5.50;;;1.82;;
24799;SDS011;12897;50.812;4.430;2023-08-20T12:24:29;7.08;;;1.72;;
24799;SDS011;12897;50.812;4.430;2023-08-20T12:26:57;8.75;;;1.60;;
24799;SDS011;12897;50.812;4.430;2023-08-20T12:29:24;5.47;;;2.27;;
24799;SDS011;12897;50.812;4.430;2023-08-20T12:31:52;5.78;;;1.92;;
24799;SDS011;12897;50.812;4.430;2023-08-20T12:34:23;6.80;;;2.17;;
24799;SDS011;12897;50.812;4.430;2023-08-20T12:36:49;6.00;;;1.75;;
24799;SDS011;12897;50.812;4.430;2023-08-20T12:39:17;6.67;;;1.80;;
24799;SDS011;12897;50.812;4.430;2023-08-20T12:41:44;7.87;;;2.40;;
24799;SDS011;12897;50.812;4.430;2023-08-20T12:44:12;9.55;;;2.10;;
24799;SDS011;12897;50.812;4.430;2023-08-20T12:46:39;6.55;;;1.60;;
24799;SDS011;12897;50.812;4.430;2023-08-20T12:49:07;7.72;;;2.52;;
24799;SDS011;12897;50.812;4.430;2023-08-20T12:51:34;5.40;;;1.90;;
24799;SDS011;12897;50.812;4.430;2023-08-20T12:54:02;8.68;;;2.02;;
24799;SDS011;12897;50.812;4.430;2023-08-20T12:56:29;8.23;;;1.75;;
24799;SDS011;12897;50.812;4.430;2023-08-20T12:58:57;5.87;;;1.82;;
24799;SDS011;12897;50.812;4.430;2023-08-20T13:01:24;10.13;;;2.02;;
24799;SDS011;12897;50.812;4.430;2023-08-20T13:03:52;8.08;;;1.60;;
24799;SDS011;12897;50.812;4.430;2023-08-20T13:06:20;6.50;;;1.80;;
24799;SDS011;12897;50.812;4.430;2023-08-20T13:08:48;5.90;;;1.70;;
24799;SDS011;12897;50.812;4.430;2023-08-20T13:11:16;7.30;;;1.80;;
24799;SDS011;12897;50.812;4.430;2023-08-20T13:13:46;5.33;;;1.62;;
24799;SDS011;12897;50.812;4.430;2023-08-20T13:16:13;6.05;;;1.70;;
24799;SDS011;12897;50.812;4.430;2023-08-20T13:18:41;8.65;;;2.40;;
24799;SDS011;12897;50.812;4.430;2023-08-20T13:21:09;6.35;;;1.67;;
24799;SDS011;12897;50.812;4.430;2023-08-20T13:23:37;8.15;;;1.92;;
24799;SDS011;12897;50.812;4.430;2023-08-20T13:26:04;6.62;;;2.05;;
24799;SDS011;12897;50.812;4.430;2023-08-20T13:28:32;6.03;;;1.80;;
24799;SDS011;12897;50.812;4.430;2023-08-20T13:31:00;5.08;;;2.25;;
24799;SDS011;12897;50.812;4.430;2023-08-20T13:33:28;8.35;;;1.90;;
24799;SDS011;12897;50.812;4.430;2023-08-20T13:35:55;8.33;;;2.00;;
24799;SDS011;12897;50.812;4.430;2023-08-20T13:38:24;6.22;;;1.95;;
24799;SDS011;12897;50.812;4.430;2023-08-20T13:40:52;4.55;;;1.80;;
24799;SDS011;12897;50.812;4.430;2023-08-20T13:43:21;6.95;;;1.92;;
24799;SDS011;12897;50.812;4.430;2023-08-20T13:45:49;5.45;;;2.05;;
24799;SDS011;12897;50.812;4.430;2023-08-20T13:48:17;5.78;;;1.92;;
24799;SDS011;12897;50.812;4.430;2023-08-20T13:50:44;5.95;;;1.80;;
24799;SDS011;12897;50.812;4.430;2023-08-20T13:53:12;7.30;;;1.82;;
24799;SDS011;12897;50.812;4.430;2023-08-20T13:55:39;4.58;;;1.55;;
24799;SDS011;12897;50.812;4.430;2023-08-20T13:58:07;4.47;;;1.90;;
24799;SDS011;12897;50.812;4.430;2023-08-20T14:00:34;4.58;;;1.72;;
24799;SDS011;12897;50.812;4.430;2023-08-20T14:03:02;5.00;;;1.90;;
24799;SDS011;12897;50.812;4.430;2023-08-20T14:05:30;6.60;;;1.80;;
24799;SDS011;12897;50.812;4.430;2023-08-20T14:07:58;4.50;;;1.77;;
24799;SDS011;12897;50.812;4.430;2023-08-20T14:10:25;7.75;;;2.08;;
24799;SDS011;12897;50.812;4.430;2023-08-20T14:12:53;4.83;;;1.77;;
24799;SDS011;12897;50.812;4.430;2023-08-20T14:15:20;6.80;;;1.70;;
24799;SDS011;12897;50.812;4.430;2023-08-20T14:17:48;5.67;;;1.85;;
24799;SDS011;12897;50.812;4.430;2023-08-20T14:20:15;6.30;;;1.80;;
24799;SDS011;12897;50.812;4.430;2023-08-20T14:22:43;5.22;;;1.60;;
24799;SDS011;12897;50.812;4.430;2023-08-20T14:25:11;7.37;;;1.82;;
24799;SDS011;12897;50.812;4.430;2023-08-20T14:27:38;4.78;;;2.42;;
24799;SDS011;12897;50.812;4.430;2023-08-20T14:30:06;7.47;;;1.80;;
24799;SDS011;12897;50.812;4.430;2023-08-20T14:32:36;6.12;;;1.85;;
24799;SDS011;12897;50.812;4.430;2023-08-20T14:35:04;9.93;;;2.10;;
24799;SDS011;12897;50.812;4.430;2023-08-20T14:37:31;5.60;;;1.67;;
24799;SDS011;12897;50.812;4.430;2023-08-20T14:39:59;5.62;;;1.80;;
24799;SDS011;12897;50.812;4.430;2023-08-20T14:42:26;9.85;;;1.98;;
24799;SDS011;12897;50.812;4.430;2023-08-20T14:44:54;9.45;;;1.70;;
24799;SDS011;12897;50.812;4.430;2023-08-20T14:47:21;6.12;;;1.80;;
24799;SDS011;12897;50.812;4.430;2023-08-20T14:49:49;8.23;;;1.70;;
24799;SDS011;12897;50.812;4.430;2023-08-20T14:52:18;4.67;;;1.90;;
24799;SDS011;12897;50.812;4.430;2023-08-20T14:54:45;8.20;;;1.60;;
24799;SDS011;12897;50.812;4.430;2023-08-20T14:57:14;5.97;;;2.00;;
24799;SDS011;12897;50.812;4.430;2023-08-20T14:59:43;7.75;;;2.10;;
24799;SDS011;12897;50.812;4.430;2023-08-20T15:02:11;4.25;;;1.65;;
24799;SDS011;12897;50.812;4.430;2023-08-20T15:04:39;6.22;;;1.80;;
24799;SDS011;12897;50.812;4.430;2023-08-20T15:07:06;6.08;;;1.60;;
24799;SDS011;12897;50.812;4.430;2023-08-20T15:09:34;5.10;;;2.25;;
24799;SDS011;12897;50.812;4.430;2023-08-20T15:12:03;5.42;;;2.10;;
24799;SDS011;12897;50.812;4.430;2023-08-20T15:14:31;4.67;;;1.70;;
24799;SDS011;12897;50.812;4.430;2023-08-20T15:16:58;9.63;;;2.10;;
24799;SDS011;12897;50.812;4.430;2023-08-20T15:19:26;4.37;;;1.72;;
24799;SDS011;12897;50.812;4.430;2023-08-20T15:21:53;8.90;;;1.77;;